Ancram, NY

4:22 AM EDT on June 30, 2015 (GMT -0400)
Copake Country Club | | Change Station
CLOSE
Current Station
Personal Weather Station
Location: Craryville, NY
Elevation: 774 ft
Nearby Weather Stations

Elev 774 ft 42.15 °N, 73.60 °W | Updated 4 minutes ago

Overcast
Overcast
56.6 °F
Feels Like 56.6 °F
N
0.0
Wind Variable Wind from WNW
Gusts 2.0 mph

Today
High -- | Low -- °F
--% Chance of Precip.
Yesterday
High -- | Low -- °F
Precip. -- in
5:21 AM 8:34 PM
Waxing Gibbous, 96% visible
Pressure 29.98 in
Visibility 0.2 miles
Clouds
Dew Point 56 °F
Humidity 98%
Rainfall in
Snow Depth Not available.
UV Not available.
Pollen 3.20 out of 12
Air Quality Not available.
Flu Activity Sporadic
SPECI KPSF 300802Z AUTO 00000KT 1/4SM FG VV001 11/11 A2998 RMK AO2 T01110111

More Conditions Fewer Conditions

Pressure 29.98 in
Visibility 0.2 miles
Clouds
Dew Point 56 °F
Humidity 98%
Rainfall in
Snow Depth Not available.
UV Not available.
Pollen 3.20 out of 12
Air Quality Not available.
Flu Activity Sporadic
SPECI KPSF 300802Z AUTO 00000KT 1/4SM FG VV001 11/11 A2998 RMK AO2 T01110111

More Conditions Fewer Conditions

10-Day Weather Forecast

×

Almanac

Astronomy

Jun. 30, 2015 Rise Set
Actual Time
Civil Twilight
Nautical Twilight
Astronomical Twilight
Moon
Length of Visible Light
Length of Day
Tomorrow will be .
, % of the Moon is Illuminated

Today's Extremes

State Highs State Lows

Community

WunderPhotos

Upload Photos

1,833,976 photos uploaded!

WunderBlogs® & News

Nearby

Air Quality

  Air Quality AQ Index Pollutant
Not available.

Snow Depth

Station Depth Elevation

Earthquake Activity

City Distance Mag. Time & Date
Minimum magnitude displayed is 2.5.

Coastal Water Temperatures

Place Temperature

Stations

Nearby Weather Stations

Station Location Temp. Windchill Dew Point Humidity Wind Precip. Elev Updated Type